Airfield :
LOGIN :

Register | Disclaimer

   EN    FR    IT 

 










Legend :    VFR   Marginal VFR   IFR   Intensive IFR   Very Intensive IFR
Visi :
Ceiling :
>= 8 km
>= 3000ft
5 to 8 km
1000 to 3000 ft
1500m to 5 km
500 to 1000 ft
800 to 1500m
200 to 500 ft
< 800m
< 200 ft
Symbols :   Thunderstorms  Fog  Heavy snow  Heavy precipitations  Wind > 20 kt
SIGMETs :     Misc.  Thunderstorms  Icing  Turbulence  Mountain Waves  Volcanic Ashes






- Airport Elevation : 82 ft
- IATA code : QIE


LFMI - Istres

CURRENT METAR :
  • 150500Z AUTO 36010KT CAVOK 05/M02 Q1019 NOSIG

EXPIRED METARs :
  • 150430Z AUTO 35008KT CAVOK 06/M03 Q1019 NOSIG
  • 150400Z AUTO 01010KT CAVOK 06/M02 Q1019 NOSIG
  • 150330Z AUTO 01009KT CAVOK 06/M03 Q1019 NOSIG
  • 150300Z AUTO 01013KT CAVOK 07/M03 Q1019 NOSIG
  • 150230Z AUTO 02009KT CAVOK 06/M03 Q1019 NOSIG

TAF TAF LFMI
Valid from the 15 at 03:00 until the 16 at 03:00 UTC


150200Z 1503/1603 35015KT CAVOK TX16/1514Z TN04/1505Z
BECMG 1510/1512 VRB05KT
BECMG 1514/1516 18010KT
BECMG 1518/1520 VRB05KT



MET'MAP, your aeronautical weather chart ! - Copyright ORBIFLY December 2007 - Disclaimer

ORBIFLY MET'MAP TEAM :

Programming & Development : Alexandra Zaïnal
Concept & original design : Baudouin d'Aumeries
Assistance for programming : Marc-Olivier Méhu
Technical & hardware support : Manuel Goepfert

Contact : metmap@orbifly.com




SOURCES & CREDITS :

   NOAA